createdAt,value
2018-12-22T00:00:37.473Z,87.58
2018-12-22T00:01:14.584Z,88.42
2018-12-22T00:01:51.533Z,88.39
2018-12-22T00:02:28.558Z,87.59
2018-12-22T00:03:08.273Z,87.96
2018-12-22T00:03:45.127Z,88.63
2018-12-22T00:04:22.239Z,88.25
2018-12-22T00:04:59.182Z,88.25
2018-12-22T00:05:36.919Z,87.31
2018-12-22T00:06:15.051Z,87.07
2018-12-22T00:06:53.979Z,87.94
2018-12-22T00:07:30.857Z,88.11
2018-12-22T00:08:09.769Z,87.46
2018-12-22T00:08:46.801Z,88.57
2018-12-22T00:09:23.806Z,88.15
2018-12-22T00:10:00.835Z,87.22
2018-12-22T00:10:41.148Z,87.85
2018-12-22T00:11:19.688Z,87.32
2018-12-22T00:11:57.587Z,88.39
2018-12-22T00:12:34.742Z,87.30
2018-12-22T00:13:13.414Z,87.08
2018-12-22T00:13:50.218Z,88.04
2018-12-22T00:14:27.893Z,87.03
2018-12-22T00:15:05.617Z,87.37
2018-12-22T00:15:43.194Z,88.13
2018-12-22T00:16:20.510Z,88.10
2018-12-22T00:16:58.052Z,87.23
2018-12-22T00:17:35.501Z,87.83
2018-12-22T00:18:12.808Z,87.03
2018-12-22T00:18:50.313Z,87.84
2018-12-22T00:19:27.445Z,87.13
2018-12-22T00:20:04.676Z,87.28
2018-12-22T00:20:41.547Z,87.92
2018-12-22T00:21:19.338Z,87.28
2018-12-22T00:21:56.751Z,86.38
2018-12-22T00:22:33.715Z,87.29
2018-12-22T00:23:11.790Z,87.68
2018-12-22T00:23:49.742Z,87.27
2018-12-22T00:24:26.858Z,86.31
2018-12-22T00:25:03.950Z,86.53
2018-12-22T00:25:41.854Z,87.40
2018-12-22T00:26:19.206Z,87.42
2018-12-22T00:26:56.049Z,86.56
2018-12-22T00:27:34.043Z,86.64
2018-12-22T00:28:10.936Z,87.20
2018-12-22T00:28:47.975Z,85.48
2018-12-22T00:29:24.952Z,86.24
2018-12-22T00:30:01.954Z,86.17
2018-12-22T00:30:38.894Z,85.93
2018-12-22T00:31:17.964Z,85.43
2018-12-22T00:31:54.867Z,85.14
2018-12-22T00:32:32.058Z,85.89
2018-12-22T00:33:09.118Z,85.58
2018-12-22T00:33:46.081Z,85.49
2018-12-22T00:34:25.151Z,85.22
2018-12-22T00:35:06.165Z,85.54
2018-12-22T00:35:43.009Z,85.28
2018-12-22T00:36:20.331Z,85.36
2018-12-22T00:36:57.256Z,84.43
2018-12-22T00:37:34.400Z,84.92
2018-12-22T00:38:11.296Z,84.85
2018-12-22T00:38:48.176Z,84.64
2018-12-22T00:39:25.226Z,84.92
2018-12-22T00:40:03.276Z,84.03
2018-12-22T00:40:40.289Z,84.19
2018-12-22T00:41:17.106Z,83.75
2018-12-22T00:41:54.036Z,83.71
2018-12-22T00:42:31.861Z,82.91
2018-12-22T00:43:10.577Z,82.79
2018-12-22T00:43:47.423Z,82.82
2018-12-22T00:44:24.441Z,82.45
2018-12-22T00:45:02.589Z,82.22
2018-12-22T00:45:40.300Z,82.54
2018-12-22T00:46:18.772Z,82.50
2018-12-22T00:46:55.771Z,81.40
2018-12-22T00:47:32.657Z,82.35
2018-12-22T00:48:11.409Z,82.20
2018-12-22T00:48:49.307Z,81.89
2018-12-22T00:49:26.224Z,81.71
2018-12-22T00:50:03.593Z,81.26
2018-12-22T00:50:40.568Z,80.97
2018-12-22T00:51:17.643Z,81.17
2018-12-22T00:51:55.581Z,80.56
2018-12-22T00:52:32.363Z,79.96
2018-12-22T00:53:10.425Z,79.55
2018-12-22T00:53:47.279Z,80.45
2018-12-22T00:54:25.001Z,79.71
2018-12-22T00:55:01.936Z,80.56
2018-12-22T00:55:38.858Z,79.80
2018-12-22T00:56:15.827Z,79.93
2018-12-22T00:56:52.913Z,80.05
2018-12-22T00:57:32.712Z,79.32
2018-12-22T00:58:10.665Z,79.93
2018-12-22T00:58:48.706Z,79.11
2018-12-22T00:59:25.771Z,78.88
2018-12-22T01:00:04.448Z,78.94
2018-12-22T01:00:42.468Z,78.62
2018-12-22T01:01:24.324Z,79.28
2018-12-22T01:02:01.258Z,78.94
2018-12-22T01:02:41.618Z,78.11
2018-12-22T01:03:18.435Z,78.68
2018-12-22T01:03:55.290Z,78.13
2018-12-22T01:04:33.591Z,76.97
2018-12-22T01:05:11.557Z,77.70
2018-12-22T01:05:50.456Z,77.77
2018-12-22T01:06:30.327Z,77.64
2018-12-22T01:07:07.272Z,76.99
2018-12-22T01:07:44.452Z,77.59
2018-12-22T01:08:21.691Z,77.42
2018-12-22T01:08:58.471Z,77.49
2018-12-22T01:09:36.282Z,76.90
2018-12-22T01:10:13.349Z,75.66
2018-12-22T01:10:51.391Z,76.26
2018-12-22T01:11:29.662Z,75.55
2018-12-22T01:12:07.761Z,75.89
2018-12-22T01:12:46.554Z,75.76
2018-12-22T01:13:23.473Z,75.41
2018-12-22T01:14:02.576Z,75.85
2018-12-22T01:14:41.477Z,74.82
2018-12-22T01:15:19.872Z,74.82
2018-12-22T01:15:56.957Z,75.18
2018-12-22T01:16:34.036Z,75.21
2018-12-22T01:17:12.227Z,74.84
2018-12-22T01:17:50.001Z,74.89
2018-12-22T01:18:26.823Z,74.61
2018-12-22T01:19:04.550Z,74.67
2018-12-22T01:19:41.933Z,73.59
2018-12-22T01:20:18.882Z,73.75
2018-12-22T01:20:58.731Z,74.31
2018-12-22T01:21:35.658Z,73.90
2018-12-22T01:22:13.904Z,73.05
2018-12-22T01:22:52.577Z,72.81
2018-12-22T01:23:31.250Z,73.25
2018-12-22T01:24:09.081Z,73.04
2018-12-22T01:24:46.161Z,72.89
2018-12-22T01:25:23.960Z,71.63
2018-12-22T01:26:02.141Z,72.08
2018-12-22T01:26:39.856Z,72.41
2018-12-22T01:27:16.733Z,72.63
2018-12-22T01:27:53.906Z,72.01
2018-12-22T01:28:39.239Z,71.86
2018-12-22T01:29:10.485Z,71.64
2018-12-22T01:29:47.760Z,71.70
2018-12-22T01:30:24.777Z,71.92
2018-12-22T01:31:02.731Z,71.91
2018-12-22T01:31:39.956Z,71.66
2018-12-22T01:32:17.909Z,71.63
2018-12-22T01:32:54.999Z,71.23
2018-12-22T01:33:31.924Z,72.12
2018-12-22T01:34:08.786Z,72.23
2018-12-22T01:34:49.245Z,71.35
2018-12-22T01:35:27.799Z,70.94
2018-12-22T01:36:04.595Z,70.96
2018-12-22T01:36:42.516Z,70.54
2018-12-22T01:37:19.524Z,71.16
2018-12-22T01:37:57.652Z,71.47
2018-12-22T01:38:35.765Z,71.33
2018-12-22T01:39:17.425Z,71.85
2018-12-22T01:39:54.510Z,71.66
2018-12-22T01:40:32.611Z,70.53
2018-12-22T01:41:10.965Z,70.17
2018-12-22T01:41:47.940Z,70.61
2018-12-22T01:42:24.906Z,71.03
2018-12-22T01:43:02.896Z,71.01
2018-12-22T01:43:40.850Z,70.46
2018-12-22T01:44:17.868Z,70.07
2018-12-22T01:44:55.041Z,70.86
2018-12-22T01:45:33.732Z,70.13
2018-12-22T01:46:10.716Z,70.40
2018-12-22T01:46:48.548Z,69.37
2018-12-22T01:47:25.653Z,69.82
2018-12-22T01:48:04.506Z,69.67
2018-12-22T01:48:41.319Z,69.53
2018-12-22T01:49:18.321Z,69.87
2018-12-22T01:49:55.377Z,69.41
2018-12-22T01:50:32.397Z,69.33
2018-12-22T01:51:10.243Z,69.03
2018-12-22T01:51:47.147Z,69.54
2018-12-22T01:52:24.083Z,69.71
2018-12-22T01:53:01.345Z,70.52
2018-12-22T01:53:39.104Z,69.76
2018-12-22T01:54:16.612Z,69.25
2018-12-22T01:54:53.915Z,69.66
2018-12-22T01:55:31.572Z,70.07
2018-12-22T01:56:09.277Z,70.00
2018-12-22T01:56:46.664Z,69.91
2018-12-22T01:57:24.121Z,69.54
2018-12-22T01:58:01.602Z,69.71
2018-12-22T01:58:39.029Z,69.31
2018-12-22T01:59:17.106Z,69.49
2018-12-22T01:59:55.733Z,69.55
2018-12-22T02:00:32.594Z,70.03
2018-12-22T02:01:09.442Z,69.83
2018-12-22T02:01:47.212Z,69.01
2018-12-22T02:02:24.133Z,69.10
2018-12-22T02:03:03.217Z,69.25
2018-12-22T02:03:43.341Z,69.33
2018-12-22T02:04:20.243Z,69.39
2018-12-22T02:04:58.334Z,69.29
2018-12-22T02:05:38.864Z,69.41
2018-12-22T02:06:15.917Z,69.80
2018-12-22T02:06:53.945Z,69.32
2018-12-22T02:07:31.056Z,69.36
2018-12-22T02:08:13.133Z,69.07
2018-12-22T02:08:50.900Z,69.10
2018-12-22T02:09:29.600Z,68.55
2018-12-22T02:10:07.846Z,68.66
2018-12-22T02:10:46.737Z,68.59
2018-12-22T02:11:24.528Z,68.41
2018-12-22T02:12:02.772Z,68.35
2018-12-22T02:12:39.763Z,68.28
2018-12-22T02:13:16.874Z,67.93
2018-12-22T02:13:54.024Z,68.23
2018-12-22T02:14:31.761Z,67.85
2018-12-22T02:15:09.566Z,67.87
2018-12-22T02:15:46.421Z,67.67
2018-12-22T02:16:23.340Z,68.03
2018-12-22T02:17:01.242Z,67.79
2018-12-22T02:17:39.973Z,67.82
2018-12-22T02:18:17.130Z,68.29
2018-12-22T02:18:54.976Z,68.21
2018-12-22T02:19:32.566Z,68.16
2018-12-22T02:20:09.688Z,67.90
2018-12-22T02:20:47.805Z,67.94
2018-12-22T02:21:26.743Z,68.01
2018-12-22T02:22:03.594Z,68.21
2018-12-22T02:22:42.625Z,68.41
2018-12-22T02:23:22.377Z,68.46
2018-12-22T02:23:59.427Z,69.00
2018-12-22T02:24:38.537Z,68.86
2018-12-22T02:25:16.345Z,69.00
2018-12-22T02:25:54.215Z,69.30
2018-12-22T02:26:34.486Z,69.43
2018-12-22T02:27:13.988Z,69.18
2018-12-22T02:27:52.175Z,69.27
2018-12-22T02:28:29.280Z,69.14
2018-12-22T02:29:07.217Z,69.84
2018-12-22T02:29:45.351Z,69.36
2018-12-22T02:30:23.340Z,69.87
2018-12-22T02:31:00.296Z,69.98
2018-12-22T02:31:38.058Z,70.02
2018-12-22T02:32:18.334Z,69.64
2018-12-22T02:32:57.084Z,69.07
2018-12-22T02:33:33.890Z,69.31
2018-12-22T02:34:11.003Z,68.90
2018-12-22T02:34:48.860Z,69.12
2018-12-22T02:35:26.864Z,69.26
2018-12-22T02:36:04.914Z,68.52
2018-12-22T02:36:42.833Z,68.77
2018-12-22T02:37:19.938Z,68.52
2018-12-22T02:37:59.114Z,68.74
2018-12-22T02:38:37.252Z,68.84
2018-12-22T02:39:14.996Z,69.10
2018-12-22T02:39:51.986Z,69.09
2018-12-22T02:40:29.313Z,69.25
2018-12-22T02:41:09.301Z,69.47
2018-12-22T02:41:47.220Z,69.03
2018-12-22T02:42:25.432Z,68.78
2018-12-22T02:43:03.225Z,69.27
2018-12-22T02:43:40.301Z,69.57
2018-12-22T02:44:18.070Z,68.96
2018-12-22T02:44:55.927Z,69.03
2018-12-22T02:45:33.765Z,68.55
2018-12-22T02:46:11.933Z,68.63
2018-12-22T02:46:48.884Z,68.36
2018-12-22T02:47:25.680Z,68.03
2018-12-22T02:48:03.508Z,67.84
2018-12-22T02:48:40.537Z,67.99
2018-12-22T02:50:13.259Z,66.94
2018-12-22T02:50:53.155Z,67.59
2018-12-22T02:51:31.073Z,67.74
2018-12-22T02:52:09.205Z,68.02
2018-12-22T02:52:46.127Z,67.31
2018-12-22T02:53:27.263Z,66.93
2018-12-22T02:54:04.152Z,66.58
2018-12-22T02:54:41.584Z,66.10
2018-12-22T02:55:18.497Z,66.12
2018-12-22T02:55:57.643Z,66.11
2018-12-22T02:56:34.708Z,66.25
2018-12-22T02:57:12.368Z,65.92
2018-12-22T02:57:50.438Z,66.13
2018-12-22T02:58:27.438Z,65.68
2018-12-22T02:59:06.563Z,65.96
2018-12-22T02:59:43.504Z,66.18
2018-12-22T03:00:20.459Z,65.69
2018-12-22T03:00:59.210Z,65.92
2018-12-22T03:01:38.088Z,65.29
2018-12-22T03:02:15.013Z,65.32
2018-12-22T03:02:52.381Z,65.20
2018-12-22T03:03:29.369Z,64.97
2018-12-22T03:04:06.333Z,64.42
2018-12-22T03:04:43.493Z,63.94
2018-12-22T03:05:20.640Z,63.96
2018-12-22T03:05:59.495Z,64.42
2018-12-22T03:06:36.613Z,63.99
2018-12-22T03:07:14.602Z,64.06
2018-12-22T03:07:52.542Z,64.23
2018-12-22T03:08:33.932Z,64.64
2018-12-22T03:09:11.739Z,64.57
2018-12-22T03:09:48.544Z,64.62
2018-12-22T03:10:25.529Z,64.61
2018-12-22T03:11:04.560Z,64.46
2018-12-22T03:11:41.483Z,63.57
2018-12-22T03:12:21.088Z,62.83
2018-12-22T03:12:58.138Z,62.44
2018-12-22T03:13:35.204Z,62.39
2018-12-22T03:14:12.436Z,62.47
2018-12-22T03:14:51.312Z,62.48
2018-12-22T03:15:28.772Z,62.43
2018-12-22T03:16:06.625Z,62.52
2018-12-22T03:16:45.618Z,62.88
2018-12-22T03:17:22.587Z,62.99
2018-12-22T03:17:59.553Z,62.88
2018-12-22T03:18:36.589Z,62.97
2018-12-22T03:19:13.388Z,62.59
2018-12-22T03:19:50.387Z,62.56
2018-12-22T03:20:27.404Z,62.92
2018-12-22T03:21:04.566Z,62.63
2018-12-22T03:21:41.565Z,62.73
2018-12-22T03:22:19.511Z,62.60
2018-12-22T03:22:56.650Z,62.88
2018-12-22T03:23:35.418Z,63.00
2018-12-22T03:24:12.212Z,62.10
2018-12-22T03:24:49.323Z,62.02
2018-12-22T03:25:28.544Z,61.95
2018-12-22T03:26:06.416Z,61.67
2018-12-22T03:26:43.607Z,62.06
2018-12-22T03:27:20.548Z,61.96
2018-12-22T03:28:01.986Z,62.40
2018-12-22T03:28:43.605Z,62.06
2018-12-22T03:29:29.560Z,62.51
2018-12-22T03:30:12.583Z,62.77
2018-12-22T03:30:52.700Z,62.66
2018-12-22T03:31:35.414Z,62.92
2018-12-22T03:32:16.921Z,61.89
2018-12-22T03:33:00.232Z,61.67
2018-12-22T03:33:41.913Z,61.67
2018-12-22T03:34:21.474Z,61.91
2018-12-22T03:35:03.678Z,61.81
2018-12-22T03:35:46.202Z,61.38
2018-12-22T03:36:29.334Z,61.68
2018-12-22T03:37:09.616Z,61.96
2018-12-22T03:37:53.827Z,62.07
2018-12-22T03:38:37.730Z,61.72
2018-12-22T03:39:22.041Z,61.32
2018-12-22T03:40:03.545Z,61.24
2018-12-22T03:40:45.752Z,61.38
2018-12-22T03:41:26.498Z,61.68
2018-12-22T03:42:08.690Z,61.41
2018-12-22T03:43:42.472Z,61.93
2018-12-22T03:44:20.477Z,61.81
2018-12-22T03:44:57.546Z,62.40
2018-12-22T03:45:34.581Z,62.23
2018-12-22T03:46:13.637Z,62.30
2018-12-22T03:46:50.745Z,62.36
2018-12-22T03:47:29.169Z,61.70
2018-12-22T03:48:06.228Z,61.56
2018-12-22T03:48:43.110Z,61.96
2018-12-22T03:49:20.311Z,62.15
2018-12-22T03:49:58.251Z,62.51
2018-12-22T03:50:37.087Z,62.23
2018-12-22T03:51:16.668Z,62.06
2018-12-22T03:51:53.409Z,62.12
2018-12-22T03:52:32.042Z,62.32
2018-12-22T03:53:09.767Z,62.30
2018-12-22T03:53:46.820Z,61.67
2018-12-22T03:54:23.921Z,61.64
2018-12-22T03:55:01.072Z,61.85
2018-12-22T03:55:38.160Z,61.60
2018-12-22T03:56:15.127Z,61.50
2018-12-22T03:56:51.938Z,61.43
2018-12-22T03:57:29.092Z,61.83
2018-12-22T03:58:06.284Z,62.17
2018-12-22T03:58:43.583Z,61.79
2018-12-22T03:59:26.105Z,61.51
2018-12-22T04:00:02.971Z,61.27
2018-12-22T04:00:40.038Z,60.93
2018-12-22T04:01:18.047Z,60.49
2018-12-22T04:01:54.897Z,60.55
2018-12-22T04:02:33.578Z,60.50
2018-12-22T04:03:13.076Z,60.81
2018-12-22T04:03:51.223Z,61.03
2018-12-22T04:04:28.097Z,59.89
2018-12-22T04:05:08.269Z,59.43
2018-12-22T04:05:45.125Z,59.12
2018-12-22T04:06:22.216Z,59.40
2018-12-22T04:06:59.840Z,59.43
2018-12-22T04:07:36.919Z,59.86
2018-12-22T04:08:13.837Z,59.76
2018-12-22T04:08:52.728Z,59.88
2018-12-22T04:09:29.967Z,60.36
2018-12-22T04:10:10.772Z,59.36
2018-12-22T04:10:48.717Z,58.51
2018-12-22T04:11:27.595Z,58.26
2018-12-22T04:12:05.721Z,58.05
2018-12-22T04:12:43.470Z,57.42
2018-12-22T04:13:20.467Z,58.03
2018-12-22T04:13:57.422Z,57.67
2018-12-22T04:14:34.278Z,57.83
2018-12-22T04:15:11.152Z,57.95
2018-12-22T04:15:48.087Z,57.82
2018-12-22T04:16:25.892Z,57.44
2018-12-22T04:17:02.953Z,56.77
2018-12-22T04:17:40.773Z,56.82
2018-12-22T04:18:17.746Z,56.99
2018-12-22T04:18:55.722Z,58.05
2018-12-22T04:19:32.683Z,57.85
2018-12-22T04:20:13.061Z,57.79
2018-12-22T04:20:50.201Z,57.47
2018-12-22T04:21:27.081Z,57.90
2018-12-22T04:22:06.067Z,56.75
2018-12-22T04:22:44.260Z,57.53
2018-12-22T04:23:21.370Z,57.30
2018-12-22T04:23:58.240Z,57.71
2018-12-22T04:24:35.465Z,58.06
2018-12-22T04:25:12.305Z,58.11
2018-12-22T04:25:49.045Z,58.02
2018-12-22T04:26:26.127Z,57.83
2018-12-22T04:27:03.974Z,57.86
2018-12-22T04:27:42.257Z,57.02
2018-12-22T04:28:19.261Z,55.83
2018-12-22T04:28:57.005Z,56.88
2018-12-22T04:29:34.474Z,56.57
2018-12-22T04:30:15.407Z,55.42
2018-12-22T04:30:53.248Z,53.95
2018-12-22T04:31:30.175Z,53.47
2018-12-22T04:32:07.029Z,53.89
2018-12-22T04:32:43.924Z,52.83
2018-12-22T04:33:20.996Z,53.62
2018-12-22T04:33:59.832Z,54.87
2018-12-22T04:34:38.985Z,54.10
2018-12-22T04:35:18.995Z,54.55
2018-12-22T04:35:58.698Z,54.55
2018-12-22T04:36:37.811Z,54.39
2018-12-22T04:37:14.894Z,54.49
2018-12-22T04:37:52.001Z,54.73
2018-12-22T04:38:29.068Z,54.08
2018-12-22T04:39:06.285Z,55.33
2018-12-22T04:39:44.357Z,55.76
2018-12-22T04:40:23.377Z,55.37
2018-12-22T04:41:00.317Z,55.30
2018-12-22T04:41:37.648Z,55.50
2018-12-22T04:42:15.497Z,56.09
2018-12-22T04:42:55.338Z,56.17
2018-12-22T04:43:32.422Z,56.86
2018-12-22T04:44:14.521Z,55.92
2018-12-22T04:44:52.545Z,56.08
2018-12-22T04:45:29.637Z,55.26
2018-12-22T04:46:07.061Z,54.08
2018-12-22T04:46:43.864Z,52.31
2018-12-22T04:47:21.525Z,51.70
2018-12-22T04:47:58.326Z,52.19
2018-12-22T04:48:36.302Z,53.02
2018-12-22T04:49:13.278Z,53.34
2018-12-22T04:49:50.368Z,53.49
2018-12-22T04:50:27.436Z,53.50
2018-12-22T04:51:04.500Z,53.50
2018-12-22T04:51:41.646Z,54.08
2018-12-22T04:52:19.667Z,54.72
2018-12-22T04:52:56.536Z,53.80
2018-12-22T04:53:33.458Z,53.69
2018-12-22T04:54:10.607Z,54.01
2018-12-22T04:54:49.249Z,54.29
2018-12-22T04:55:28.072Z,53.76
2018-12-22T04:56:06.038Z,53.81
2018-12-22T04:56:44.711Z,54.21
2018-12-22T04:57:21.689Z,55.07
2018-12-22T04:58:03.181Z,55.54
2018-12-22T04:58:40.533Z,55.11
2018-12-22T04:59:18.455Z,54.05
2018-12-22T04:59:55.515Z,53.68
2018-12-22T05:00:33.433Z,54.73
2018-12-22T05:01:11.254Z,54.20
2018-12-22T05:01:50.256Z,54.30
2018-12-22T05:02:27.361Z,55.14
2018-12-22T05:03:04.424Z,54.86
2018-12-22T05:03:43.029Z,54.89
2018-12-22T05:04:21.226Z,55.47
2018-12-22T05:04:59.217Z,54.51
2018-12-22T05:05:36.407Z,54.00
2018-12-22T05:06:17.666Z,54.23
2018-12-22T05:06:54.657Z,53.75
2018-12-22T05:07:31.661Z,52.56
2018-12-22T05:08:08.530Z,53.20
2018-12-22T05:08:46.619Z,52.50
2018-12-22T05:09:25.942Z,52.61
2018-12-22T05:10:02.949Z,52.79
2018-12-22T05:10:46.187Z,53.39
2018-12-22T05:11:23.270Z,53.99
2018-12-22T05:12:01.312Z,53.85
2018-12-22T05:12:38.558Z,53.80
2018-12-22T05:13:16.378Z,54.31
2018-12-22T05:13:54.356Z,53.87
2018-12-22T05:14:31.196Z,53.47
2018-12-22T05:15:08.809Z,52.94
2018-12-22T05:15:45.650Z,52.42
2018-12-22T05:16:26.158Z,53.35
2018-12-22T05:17:04.125Z,53.24
2018-12-22T05:17:41.057Z,52.83
2018-12-22T05:18:17.940Z,54.20
2018-12-22T05:18:54.801Z,53.81
2018-12-22T05:19:31.938Z,54.48
2018-12-22T05:20:09.447Z,53.90
2018-12-22T05:20:46.489Z,53.97
2018-12-22T05:21:23.422Z,54.50
2018-12-22T05:22:00.820Z,54.43
2018-12-22T05:22:38.901Z,54.87
2018-12-22T05:23:17.800Z,54.95
2018-12-22T05:23:59.368Z,54.63
2018-12-22T05:24:37.306Z,54.79
2018-12-22T05:25:14.271Z,54.85
2018-12-22T05:25:51.791Z,54.89
2018-12-22T05:26:28.953Z,55.20
2018-12-22T05:27:06.526Z,54.75
2018-12-22T05:27:43.462Z,54.38
2018-12-22T05:28:21.552Z,54.89
2018-12-22T05:28:58.451Z,55.02
2018-12-22T05:29:36.501Z,55.21
2018-12-22T05:30:13.617Z,55.16
2018-12-22T05:30:53.875Z,54.75
2018-12-22T05:31:30.733Z,53.71
2018-12-22T05:32:08.626Z,54.38
2018-12-22T05:32:46.799Z,55.00
2018-12-22T05:33:25.608Z,54.21
2018-12-22T05:34:02.592Z,54.06
2018-12-22T05:34:42.585Z,54.09
2018-12-22T05:35:19.608Z,54.09
2018-12-22T05:35:57.833Z,54.17
2018-12-22T05:36:34.803Z,54.51
2018-12-22T05:37:11.769Z,54.62
2018-12-22T05:37:48.889Z,54.21
2018-12-22T05:38:26.730Z,53.83
2018-12-22T05:39:04.000Z,53.84
2018-12-22T05:39:41.054Z,53.29
2018-12-22T05:40:19.060Z,53.43
2018-12-22T05:40:55.908Z,52.60
2018-12-22T05:41:33.318Z,52.50
2018-12-22T05:42:10.992Z,53.09
2018-12-22T05:42:48.738Z,53.21
2018-12-22T05:43:25.839Z,54.04
2018-12-22T05:44:07.901Z,53.38
2018-12-22T05:44:45.652Z,54.04
2018-12-22T05:45:22.632Z,51.63
2018-12-22T05:46:01.490Z,51.24
2018-12-22T05:46:38.351Z,51.84
2018-12-22T05:47:15.385Z,51.48
2018-12-22T05:47:53.245Z,51.06
2018-12-22T05:48:31.713Z,51.63
2018-12-22T05:49:10.114Z,51.72
2018-12-22T05:49:47.703Z,51.34
2018-12-22T05:50:24.507Z,50.67
2018-12-22T05:51:01.409Z,50.15
2018-12-22T05:51:39.617Z,50.02
2018-12-22T05:52:16.599Z,50.22
2018-12-22T05:52:53.569Z,50.90
2018-12-22T05:53:32.351Z,49.98
2018-12-22T05:54:09.435Z,49.26
2018-12-22T05:54:49.975Z,50.24
2018-12-22T05:55:28.020Z,49.84
2018-12-22T05:56:06.173Z,49.79
2018-12-22T05:56:44.049Z,50.16
2018-12-22T05:57:20.913Z,50.23
2018-12-22T05:58:00.651Z,50.48
2018-12-22T05:58:37.500Z,50.54
2018-12-22T05:59:14.413Z,51.07
2018-12-22T06:00:00.097Z,50.95
2018-12-22T06:00:30.657Z,50.44
2018-12-22T06:01:08.547Z,50.50
2018-12-22T06:01:46.234Z,50.66
2018-12-22T06:02:25.074Z,50.36
2018-12-22T06:03:02.120Z,50.36
2018-12-22T06:03:39.136Z,50.37
2018-12-22T06:04:16.857Z,49.78
2018-12-22T06:04:54.012Z,50.68
2018-12-22T06:05:31.129Z,50.45
2018-12-22T06:06:08.990Z,50.91
2018-12-22T06:06:46.980Z,50.54
2018-12-22T06:07:24.083Z,49.36
2018-12-22T06:08:00.914Z,50.01
2018-12-22T06:08:37.993Z,50.17
2018-12-22T06:09:15.749Z,50.18
2018-12-22T06:09:52.799Z,50.33
2018-12-22T06:10:31.513Z,50.05
2018-12-22T06:11:11.535Z,49.93
2018-12-22T06:11:48.672Z,50.00
2018-12-22T06:12:25.897Z,50.29
2018-12-22T06:13:06.380Z,50.66
2018-12-22T06:13:44.219Z,50.26
2018-12-22T06:14:22.189Z,50.02
2018-12-22T06:14:59.861Z,49.65
2018-12-22T06:15:37.850Z,49.90
2018-12-22T06:16:15.807Z,49.21
2018-12-22T06:16:54.998Z,48.37
2018-12-22T06:17:32.148Z,48.73
2018-12-22T06:18:11.720Z,49.00
2018-12-22T06:18:50.345Z,49.05
2018-12-22T06:19:28.126Z,48.91
2018-12-22T06:20:06.025Z,50.27
2018-12-22T06:20:43.160Z,51.24
2018-12-22T06:21:20.981Z,50.78
2018-12-22T06:21:58.838Z,50.68
2018-12-22T06:22:35.663Z,50.80
2018-12-22T06:23:15.244Z,51.52
2018-12-22T06:23:52.076Z,51.93
2018-12-22T06:24:29.776Z,50.92
2018-12-22T06:25:06.955Z,50.27
2018-12-22T06:25:43.960Z,50.76
2018-12-22T06:26:21.969Z,51.04
2018-12-22T06:26:58.830Z,51.22
2018-12-22T06:27:35.715Z,52.16
2018-12-22T06:28:12.648Z,52.21
2018-12-22T06:28:50.505Z,52.56
2018-12-22T06:29:28.275Z,52.08
2018-12-22T06:30:09.455Z,52.55
2018-12-22T06:30:45.449Z,52.52
2018-12-22T06:31:22.309Z,52.10
2018-12-22T06:31:59.177Z,52.40
2018-12-22T06:32:37.158Z,51.72
2018-12-22T06:33:15.327Z,52.01
2018-12-22T06:33:52.998Z,51.83
2018-12-22T06:34:31.403Z,51.79
2018-12-22T06:35:10.029Z,52.39
2018-12-22T06:35:47.648Z,52.59
2018-12-22T06:36:24.866Z,51.34
2018-12-22T06:37:01.748Z,51.11
2018-12-22T06:37:38.847Z,50.85
2018-12-22T06:38:16.827Z,51.67
2018-12-22T06:38:53.870Z,51.36
2018-12-22T06:39:33.418Z,51.57
2018-12-22T06:40:10.419Z,51.46
2018-12-22T06:40:47.373Z,50.79
2018-12-22T06:41:26.858Z,50.64
2018-12-22T06:42:03.712Z,50.71
2018-12-22T06:42:41.532Z,50.72
2018-12-22T06:43:18.380Z,51.22
2018-12-22T06:43:55.230Z,51.22
2018-12-22T06:44:32.269Z,51.42
2018-12-22T06:45:09.365Z,50.80
2018-12-22T06:45:46.332Z,51.35
2018-12-22T06:46:24.317Z,51.29
2018-12-22T06:47:01.251Z,51.25
2018-12-22T06:47:38.053Z,51.49
2018-12-22T06:48:15.078Z,51.92
2018-12-22T06:48:53.761Z,52.19
2018-12-22T06:49:31.465Z,52.67
2018-12-22T06:50:09.661Z,52.84
2018-12-22T06:50:46.636Z,52.97
2018-12-22T06:51:25.542Z,53.69
2018-12-22T06:52:04.029Z,54.23
2018-12-22T06:52:42.765Z,54.77
2018-12-22T06:53:20.528Z,54.33
2018-12-22T06:53:57.831Z,54.41
2018-12-22T06:54:34.709Z,53.28
2018-12-22T06:55:11.559Z,53.14
2018-12-22T06:55:49.586Z,53.30
2018-12-22T06:56:27.637Z,52.91
2018-12-22T06:57:04.471Z,53.03
2018-12-22T06:57:42.357Z,52.57
2018-12-22T06:58:19.361Z,52.71
2018-12-22T06:59:02.517Z,52.08
2018-12-22T06:59:40.520Z,52.05
2018-12-22T07:00:18.645Z,52.74
2018-12-22T07:00:55.561Z,53.13
2018-12-22T07:01:33.693Z,53.30
2018-12-22T07:02:11.590Z,53.40
2018-12-22T07:02:48.589Z,53.95
2018-12-22T07:03:25.484Z,53.80
2018-12-22T07:04:04.506Z,53.95
2018-12-22T07:04:43.604Z,53.93
2018-12-22T07:05:22.948Z,53.90
2018-12-22T07:06:03.576Z,53.51
2018-12-22T07:06:40.697Z,53.79
2018-12-22T07:07:18.424Z,53.46
2018-12-22T07:07:55.466Z,53.85
2018-12-22T07:08:32.676Z,53.59
2018-12-22T07:09:10.376Z,53.27
2018-12-22T07:09:49.304Z,53.12
2018-12-22T07:10:26.291Z,52.97
2018-12-22T07:11:03.507Z,52.76
2018-12-22T07:11:40.413Z,52.82
2018-12-22T07:12:18.712Z,52.96
2018-12-22T07:12:57.495Z,53.21
2018-12-22T07:13:34.234Z,53.59
2018-12-22T07:14:11.310Z,53.52
2018-12-22T07:14:50.082Z,53.41
2018-12-22T07:15:27.304Z,53.29
2018-12-22T07:16:04.312Z,53.66
2018-12-22T07:16:44.939Z,53.64
2018-12-22T07:17:22.772Z,53.63
2018-12-22T07:18:02.767Z,54.25
2018-12-22T07:18:40.801Z,54.13
2018-12-22T07:19:17.744Z,54.24
2018-12-22T07:19:54.846Z,54.29
2018-12-22T07:20:31.807Z,54.85
2018-12-22T07:21:08.648Z,55.19
2018-12-22T07:21:45.551Z,54.89
2018-12-22T07:22:23.766Z,54.86
2018-12-22T07:23:01.039Z,54.78
2018-12-22T07:23:38.276Z,54.97
2018-12-22T07:24:16.268Z,55.12
2018-12-22T07:24:55.268Z,54.83
2018-12-22T07:25:33.409Z,54.65
2018-12-22T07:26:10.462Z,55.13
2018-12-22T07:26:48.420Z,55.43
2018-12-22T07:27:25.212Z,55.49
2018-12-22T07:28:03.002Z,55.66
2018-12-22T07:28:40.645Z,55.84
2018-12-22T07:29:19.289Z,56.28
2018-12-22T07:29:57.498Z,55.81
2018-12-22T07:30:35.421Z,55.92
2018-12-22T07:31:14.141Z,56.28
2018-12-22T07:31:51.110Z,56.19
2018-12-22T07:32:28.165Z,56.67
2018-12-22T07:33:05.669Z,56.79
2018-12-22T07:33:43.514Z,56.07
2018-12-22T07:34:23.368Z,56.06
2018-12-22T07:35:00.311Z,56.06
2018-12-22T07:35:37.540Z,56.34
2018-12-22T07:36:14.489Z,56.45
2018-12-22T07:36:55.004Z,56.11
2018-12-22T07:37:31.864Z,56.01
2018-12-22T07:38:11.661Z,55.82
2018-12-22T07:38:49.436Z,56.42
2018-12-22T07:39:26.465Z,56.48
2018-12-22T07:40:04.116Z,56.88
2018-12-22T07:40:41.064Z,56.20
2018-12-22T07:41:17.845Z,56.14
2018-12-22T07:41:54.667Z,56.23
2018-12-22T07:42:33.618Z,56.09
2018-12-22T07:43:10.656Z,55.93
2018-12-22T07:43:49.448Z,56.18
2018-12-22T07:44:26.667Z,56.18
2018-12-22T07:45:03.801Z,56.08
2018-12-22T07:45:42.644Z,56.21
2018-12-22T07:46:19.708Z,56.42
2018-12-22T07:46:56.607Z,56.94
2018-12-22T07:47:33.620Z,56.97
2018-12-22T07:48:10.863Z,56.88
2018-12-22T07:48:48.204Z,56.20
2018-12-22T07:49:26.081Z,56.32
2018-12-22T07:50:05.211Z,55.95
2018-12-22T07:50:44.257Z,56.80
2018-12-22T07:51:21.944Z,55.59
2018-12-22T07:52:01.342Z,55.22
2018-12-22T07:52:39.860Z,55.68
2018-12-22T07:53:17.900Z,55.29
2018-12-22T07:53:54.694Z,55.49
2018-12-22T07:54:31.701Z,55.66
2018-12-22T07:55:09.050Z,55.86
2018-12-22T07:55:46.202Z,56.40
2018-12-22T07:56:23.415Z,56.06
2018-12-22T07:57:00.405Z,55.99
2018-12-22T07:57:39.301Z,56.36
2018-12-22T07:58:16.248Z,56.15
2018-12-22T07:58:53.189Z,55.99
2018-12-22T07:59:30.180Z,56.15
2018-12-22T08:00:07.433Z,55.66
2018-12-22T08:00:44.246Z,55.47
2018-12-22T08:01:21.202Z,55.68
2018-12-22T08:01:59.172Z,56.12
2018-12-22T08:02:37.741Z,56.28
2018-12-22T08:03:14.878Z,56.40
2018-12-22T08:03:52.905Z,55.68
2018-12-22T08:04:30.926Z,55.92
2018-12-22T08:05:08.858Z,55.84
2018-12-22T08:05:45.949Z,55.44
2018-12-22T08:06:22.874Z,55.03
2018-12-22T08:07:00.537Z,54.08
2018-12-22T08:07:43.282Z,54.17
2018-12-22T08:08:21.142Z,54.08
2018-12-22T08:09:00.214Z,54.52
2018-12-22T08:09:39.733Z,54.77
2018-12-22T08:10:18.039Z,54.41